createdAt,value
2022-09-21T00:01:38.740Z,11.90
2022-09-21T00:06:41.081Z,11.80
2022-09-21T00:11:43.311Z,11.80
2022-09-21T00:16:45.726Z,11.80
2022-09-21T00:21:47.970Z,11.70
2022-09-21T00:26:50.190Z,11.80
2022-09-21T00:31:52.565Z,11.70
2022-09-21T00:36:54.774Z,11.60
2022-09-21T00:41:57.045Z,11.60
2022-09-21T00:47:06.673Z,11.50
2022-09-21T00:52:12.720Z,11.40
2022-09-21T00:57:16.781Z,11.40
2022-09-21T01:02:19.072Z,11.30
2022-09-21T01:07:29.480Z,11.30
2022-09-21T01:12:52.920Z,11.20
2022-09-21T01:18:19.907Z,11.20
2022-09-21T01:23:59.581Z,11.20
2022-09-21T01:29:35.857Z,10.90
2022-09-21T01:34:48.603Z,11.10
2022-09-21T01:39:55.752Z,11.00
2022-09-21T01:45:01.731Z,11.00
2022-09-21T01:50:07.534Z,10.90
2022-09-21T01:55:16.632Z,10.90
2022-09-21T02:00:19.084Z,10.70
2022-09-21T02:05:23.568Z,10.70
2022-09-21T02:10:36.852Z,10.70
2022-09-21T02:15:48.470Z,10.60
2022-09-21T02:20:58.215Z,10.50
2022-09-21T02:26:18.505Z,10.50
2022-09-21T02:31:51.525Z,10.30
2022-09-21T02:37:11.802Z,10.30
2022-09-21T02:42:20.395Z,10.20
2022-09-21T02:47:37.217Z,10.20
2022-09-21T02:52:42.825Z,10.20
2022-09-21T02:57:47.939Z,10.10
2022-09-21T03:02:50.110Z,10.10
2022-09-21T03:07:52.250Z,10.00
2022-09-21T03:12:59.347Z,10.00
2022-09-21T03:18:03.307Z,9.90
2022-09-21T03:23:05.910Z,10.00
2022-09-21T03:28:08.099Z,9.90
2022-09-21T03:33:11.427Z,9.90
2022-09-21T03:38:13.649Z,9.80
2022-09-21T03:43:16.731Z,9.80
2022-09-21T03:53:21.546Z,9.60
2022-09-21T03:58:23.803Z,9.60
2022-09-21T04:08:28.653Z,9.50
2022-09-21T04:13:30.888Z,9.50
2022-09-21T04:18:33.194Z,9.50
2022-09-21T04:23:35.675Z,9.40
2022-09-21T04:28:37.885Z,9.40
2022-09-21T04:33:40.209Z,9.40
2022-09-21T04:38:42.432Z,9.40
2022-09-21T04:43:46.461Z,9.30
2022-09-21T04:48:49.749Z,9.30
2022-09-21T04:53:52.183Z,9.30
2022-09-21T04:58:54.937Z,9.20
2022-09-21T05:04:01.739Z,9.20
2022-09-21T05:14:25.360Z,9.20
2022-09-21T05:19:27.583Z,9.10
2022-09-21T05:24:29.945Z,9.10
2022-09-21T05:29:32.643Z,9.10
2022-09-21T05:34:43.885Z,9.20
2022-09-21T05:39:46.572Z,9.10
2022-09-21T05:44:49.546Z,9.20
2022-09-21T05:49:54.519Z,9.30
2022-09-21T05:55:21.372Z,9.30
2022-09-21T06:00:24.164Z,9.40
2022-09-21T06:05:26.330Z,9.40
2022-09-21T06:10:34.064Z,9.50
2022-09-21T06:15:38.418Z,9.60
2022-09-21T06:20:41.025Z,9.80
2022-09-21T06:25:43.323Z,9.80
2022-09-21T06:30:51.740Z,9.90
2022-09-21T06:35:59.292Z,10.10
2022-09-21T06:41:03.212Z,10.30
2022-09-21T06:46:11.584Z,10.50
2022-09-21T06:51:13.808Z,10.70
2022-09-21T06:56:16.431Z,10.90
2022-09-21T07:01:19.514Z,11.10
2022-09-21T07:06:22.565Z,11.30
2022-09-21T07:11:25.175Z,11.70
2022-09-21T07:16:28.128Z,12.00
2022-09-21T07:21:30.429Z,12.30
2022-09-21T07:26:33.709Z,12.60
2022-09-21T07:31:35.908Z,12.90
2022-09-21T07:36:38.221Z,13.20
2022-09-21T07:41:40.407Z,13.40
2022-09-21T07:46:47.860Z,13.70
2022-09-21T07:57:11.455Z,14.10
2022-09-21T08:02:13.737Z,14.40
2022-09-21T08:07:16.172Z,14.50
2022-09-21T08:12:20.553Z,14.70
2022-09-21T08:17:24.531Z,14.90
2022-09-21T08:22:26.774Z,15.00
2022-09-21T08:27:29.124Z,15.20
2022-09-21T08:32:49.949Z,15.20
2022-09-21T08:37:54.459Z,15.50
2022-09-21T08:43:11.900Z,15.60
2022-09-21T08:48:28.358Z,15.80
2022-09-21T08:53:40.346Z,15.80
2022-09-21T08:58:43.623Z,16.10
2022-09-21T09:04:17.970Z,16.20
2022-09-21T09:09:38.581Z,16.40
2022-09-21T09:15:04.933Z,16.60
2022-09-21T09:20:27.974Z,16.70
2022-09-21T09:25:41.941Z,16.90
2022-09-21T09:30:44.555Z,17.10
2022-09-21T09:35:52.364Z,17.30
2022-09-21T09:41:15.287Z,17.40
2022-09-21T09:46:31.226Z,17.50
2022-09-21T09:51:36.618Z,17.60
2022-09-21T09:56:38.807Z,17.60
2022-09-21T10:01:46.249Z,17.90
2022-09-21T10:06:48.539Z,18.10
2022-09-21T10:11:52.947Z,18.30
2022-09-21T10:16:57.241Z,18.40
2022-09-21T10:22:02.274Z,18.50
2022-09-21T10:27:11.671Z,18.70
2022-09-21T10:32:15.148Z,18.60
2022-09-21T10:37:34.752Z,18.80
2022-09-21T10:42:42.753Z,19.10
2022-09-21T10:47:52.379Z,19.20
2022-09-21T10:53:31.263Z,19.50
2022-09-21T10:58:34.770Z,19.70
2022-09-21T11:03:47.640Z,19.80
2022-09-21T11:09:09.008Z,20.20
2022-09-21T11:14:14.089Z,20.40
2022-09-21T11:19:42.105Z,20.60
2022-09-21T11:24:59.468Z,20.90
2022-09-21T11:30:07.224Z,21.10
2022-09-21T11:35:15.172Z,21.50
2022-09-21T11:40:32.912Z,21.80
2022-09-21T11:46:10.501Z,22.30
2022-09-21T11:51:50.132Z,22.50
2022-09-21T11:57:11.379Z,22.80
2022-09-21T12:02:43.330Z,23.00
2022-09-21T12:08:04.340Z,23.30
2022-09-21T12:13:28.128Z,23.70
2022-09-21T12:18:40.376Z,24.00
2022-09-21T12:23:59.683Z,23.90
2022-09-21T12:29:25.351Z,23.90
2022-09-21T12:34:39.747Z,24.00
2022-09-21T12:39:52.587Z,24.20
2022-09-21T12:44:56.895Z,24.30
2022-09-21T12:50:31.198Z,24.70
2022-09-21T12:55:50.440Z,25.10
2022-09-21T13:01:11.751Z,25.10
2022-09-21T13:06:38.062Z,24.70
2022-09-21T13:12:17.785Z,24.70
2022-09-21T13:17:31.343Z,25.30
2022-09-21T13:22:37.490Z,25.80
2022-09-21T13:28:01.735Z,25.80
2022-09-21T13:33:25.218Z,26.00
2022-09-21T13:38:45.671Z,25.80
2022-09-21T13:43:59.714Z,25.80
2022-09-21T13:49:21.008Z,27.40
2022-09-21T13:54:28.215Z,27.70
2022-09-21T13:59:33.251Z,28.30
2022-09-21T14:04:37.626Z,30.00
2022-09-21T14:15:18.645Z,29.50
2022-09-21T14:20:39.846Z,29.10
2022-09-21T14:26:02.155Z,28.90
2022-09-21T14:31:40.110Z,28.70
2022-09-21T14:36:45.876Z,28.80
2022-09-21T14:41:52.626Z,29.60
2022-09-21T14:47:03.980Z,30.60
2022-09-21T14:52:38.155Z,31.60
2022-09-21T14:58:17.470Z,32.50
2022-09-21T15:03:58.270Z,33.60
2022-09-21T15:09:55.189Z,34.20
2022-09-21T15:15:05.098Z,34.50
2022-09-21T15:20:23.537Z,34.00
2022-09-21T15:25:32.586Z,32.80
2022-09-21T15:30:45.892Z,31.60
2022-09-21T15:35:48.605Z,30.40
2022-09-21T15:40:51.283Z,29.10
2022-09-21T15:46:02.070Z,27.80
2022-09-21T15:51:23.362Z,26.70
2022-09-21T15:56:28.761Z,25.70
2022-09-21T16:01:31.659Z,24.80
2022-09-21T16:06:41.586Z,24.20
2022-09-21T16:11:43.940Z,23.70
2022-09-21T16:17:09.275Z,23.40
2022-09-21T16:22:17.529Z,23.00
2022-09-21T16:27:23.016Z,22.60
2022-09-21T16:32:33.521Z,22.50
2022-09-21T16:37:37.649Z,22.20
2022-09-21T16:42:41.067Z,21.90
2022-09-21T16:47:43.410Z,21.40
2022-09-21T16:52:48.497Z,21.40
2022-09-21T16:57:50.797Z,21.20
2022-09-21T17:02:53.222Z,21.00
2022-09-21T17:07:57.543Z,20.80
2022-09-21T17:13:00.032Z,20.50
2022-09-21T17:18:03.946Z,20.30
2022-09-21T17:23:06.436Z,20.10
2022-09-21T17:28:26.046Z,19.70
2022-09-21T17:33:29.196Z,19.70
2022-09-21T17:38:31.588Z,18.90
2022-09-21T17:43:55.422Z,18.90
2022-09-21T17:48:57.637Z,18.60
2022-09-21T17:54:00.203Z,18.50
2022-09-21T17:59:05.393Z,18.10
2022-09-21T18:04:10.871Z,18.00
2022-09-21T18:09:13.862Z,17.60
2022-09-21T18:14:57.441Z,17.60
2022-09-21T18:20:35.420Z,17.20
2022-09-21T18:25:47.753Z,17.00
2022-09-21T18:31:29.908Z,16.70
2022-09-21T18:36:43.417Z,16.60
2022-09-21T18:42:02.600Z,16.50
2022-09-21T18:47:15.545Z,16.50
2022-09-21T18:52:23.405Z,15.90
2022-09-21T18:57:26.067Z,16.10
2022-09-21T19:02:29.273Z,16.00
2022-09-21T19:07:40.163Z,15.90
2022-09-21T19:12:50.648Z,15.70
2022-09-21T19:18:21.995Z,15.70
2022-09-21T19:23:49.433Z,15.40
2022-09-21T19:29:01.140Z,15.10
2022-09-21T19:34:16.393Z,15.00
2022-09-21T19:39:19.780Z,14.80
2022-09-21T19:44:40.035Z,14.60
2022-09-21T19:49:48.046Z,14.40
2022-09-21T19:55:09.211Z,14.10
2022-09-21T20:00:16.293Z,14.00
2022-09-21T20:05:28.249Z,13.80
2022-09-21T20:10:56.701Z,13.80
2022-09-21T20:16:18.351Z,13.60
2022-09-21T20:21:24.099Z,13.70
2022-09-21T20:26:28.029Z,13.40
2022-09-21T20:31:30.409Z,13.30
2022-09-21T20:36:32.851Z,13.20
2022-09-21T20:41:35.295Z,13.10
2022-09-21T20:46:37.752Z,13.10
2022-09-21T20:51:40.353Z,13.00
2022-09-21T20:56:42.758Z,12.80
2022-09-21T21:01:45.212Z,13.00
2022-09-21T21:06:47.659Z,13.10
2022-09-21T21:11:51.759Z,12.70
2022-09-21T21:16:54.224Z,12.40
2022-09-21T21:21:56.576Z,12.40
2022-09-21T21:27:02.109Z,12.30
2022-09-21T21:32:05.530Z,12.00
2022-09-21T21:37:08.879Z,12.20
2022-09-21T21:42:12.063Z,13.00
2022-09-21T21:47:38.055Z,12.10
2022-09-21T21:52:37.888Z,12.10
2022-09-21T21:57:40.222Z,11.90
2022-09-21T22:02:42.661Z,12.00
2022-09-21T22:07:45.267Z,12.00
2022-09-21T22:12:47.765Z,11.80
2022-09-21T22:17:50.880Z,11.90
2022-09-21T22:22:53.654Z,11.80
2022-09-21T22:27:56.186Z,11.90
2022-09-21T22:32:59.114Z,11.60
2022-09-21T22:38:01.600Z,11.70
2022-09-21T22:43:04.139Z,11.60
2022-09-21T22:48:06.492Z,11.70
2022-09-21T22:53:08.973Z,11.50
2022-09-21T22:58:11.425Z,11.40
2022-09-21T23:03:13.855Z,11.50
2022-09-21T23:08:16.317Z,11.40
2022-09-21T23:13:18.703Z,11.20
2022-09-21T23:18:21.180Z,11.20
2022-09-21T23:23:24.086Z,11.10
2022-09-21T23:28:26.528Z,11.10
2022-09-21T23:33:39.969Z,10.90
2022-09-21T23:38:42.956Z,11.00
2022-09-21T23:43:45.953Z,11.10
2022-09-21T23:48:49.375Z,11.10
2022-09-21T23:53:51.978Z,10.80
2022-09-21T23:58:54.758Z,10.70
